KACV/ACV METAR and TAF weather

Enter ICAO airport designator
Station Type Date Time Source
KACV METAR 2019/06/24 22:53 UTC NOAA

KACV 242253Z AUTO 33011G15KT 290V360 10SM CLR 13/10 A3000 RMK AO2 SLP164 T01330100


Station Type Date Time Source
KACV Decoded METAR 2019/06/24 22:53 UTC NOAA

ARCATA/EUREKA ARCATA AIRPORT, CA, United States (KACV) 40-59N 124-06W 67M
Jun 24, 2019 - 06:53 PM EDT / 2019.06.24 2253 UTC
Wind: from the NNW (330 degrees) at 13 MPH (11 KT) gusting to 17 MPH (15 KT) (direction variable):0
Visibility: 10 mile(s):0
Sky conditions: clear
Temperature: 55.9 F (13.3 C)
Dew Point: 50.0 F (10.0 C)
Relative Humidity: 80%
Pressure (altimeter): 30 in. Hg (1015 hPa)
ob: KACV 242253Z AUTO 33011G15KT 290V360 10SM CLR 13/10 A3000 RMK AO2 SLP164 T01330100
cycle: 23

Station Type Date Time Source
KACV TAF 2019/06/24 18:34 UTC NOAA

TAF KACV 241732Z 2418/2518 30009KT P6SM FEW006 BKN250
FM242100 32012G17KT P6SM BKN200
FM250300 35007KT P6SM BKN250
FM250800 VRB03KT P6SM BKN009
FM251200 VRB03KT 6SM BR OVC004

Example: see airport list